sensor_id;sensor_type;location;lat;lon;timestamp;temperature;humidity
1415;DHT22;702;49.466;11.086;2022-11-20T00:00:51;0.70;95.30
1415;DHT22;702;49.466;11.086;2022-11-20T00:03:19;0.70;93.60
1415;DHT22;702;49.466;11.086;2022-11-20T00:05:46;0.70;93.60
1415;DHT22;702;49.466;11.086;2022-11-20T00:08:14;0.70;93.80
1415;DHT22;702;49.466;11.086;2022-11-20T00:10:43;0.80;94.20
1415;DHT22;702;49.466;11.086;2022-11-20T00:13:10;0.80;93.70
1415;DHT22;702;49.466;11.086;2022-11-20T00:15:37;0.90;93.50
1415;DHT22;702;49.466;11.086;2022-11-20T00:18:05;0.90;93.90
1415;DHT22;702;49.466;11.086;2022-11-20T00:20:33;0.90;93.20
1415;DHT22;702;49.466;11.086;2022-11-20T00:23:00;0.80;93.80
1415;DHT22;702;49.466;11.086;2022-11-20T00:25:27;0.80;93.80
1415;DHT22;702;49.466;11.086;2022-11-20T00:27:57;0.80;93.80
1415;DHT22;702;49.466;11.086;2022-11-20T00:30:25;0.90;94.70
1415;DHT22;702;49.466;11.086;2022-11-20T00:32:52;0.90;95.10
1415;DHT22;702;49.466;11.086;2022-11-20T00:35:19;0.90;94.10
1415;DHT22;702;49.466;11.086;2022-11-20T00:37:46;0.90;94.70
1415;DHT22;702;49.466;11.086;2022-11-20T00:40:14;0.90;94.80
1415;DHT22;702;49.466;11.086;2022-11-20T00:42:41;1.00;95.40
1415;DHT22;702;49.466;11.086;2022-11-20T00:45:10;1.00;95.90
1415;DHT22;702;49.466;11.086;2022-11-20T00:47:37;1.00;95.10
1415;DHT22;702;49.466;11.086;2022-11-20T00:50:05;0.90;95.70
1415;DHT22;702;49.466;11.086;2022-11-20T00:52:32;0.90;95.90
1415;DHT22;702;49.466;11.086;2022-11-20T00:55:00;0.90;94.70
1415;DHT22;702;49.466;11.086;2022-11-20T00:57:27;0.90;94.90
1415;DHT22;702;49.466;11.086;2022-11-20T00:59:54;0.90;95.90
1415;DHT22;702;49.466;11.086;2022-11-20T01:02:23;0.90;94.00
1415;DHT22;702;49.466;11.086;2022-11-20T01:04:50;0.90;96.10
1415;DHT22;702;49.466;11.086;2022-11-20T01:07:18;0.90;95.50
1415;DHT22;702;49.466;11.086;2022-11-20T01:09:45;0.90;95.90
1415;DHT22;702;49.466;11.086;2022-11-20T01:12:12;0.90;96.40
1415;DHT22;702;49.466;11.086;2022-11-20T01:14:39;1.00;96.80
1415;DHT22;702;49.466;11.086;2022-11-20T01:17:06;1.00;96.00
1415;DHT22;702;49.466;11.086;2022-11-20T01:19:35;1.00;95.10
1415;DHT22;702;49.466;11.086;2022-11-20T01:22:02;1.10;95.50
1415;DHT22;702;49.466;11.086;2022-11-20T01:24:30;1.10;96.20
1415;DHT22;702;49.466;11.086;2022-11-20T01:26:57;1.00;95.30
1415;DHT22;702;49.466;11.086;2022-11-20T01:29:25;1.00;96.60
1415;DHT22;702;49.466;11.086;2022-11-20T01:31:52;1.10;96.20
1415;DHT22;702;49.466;11.086;2022-11-20T01:34:21;1.00;96.70
1415;DHT22;702;49.466;11.086;2022-11-20T01:36:50;1.10;96.90
1415;DHT22;702;49.466;11.086;2022-11-20T01:39:20;1.10;96.50
1415;DHT22;702;49.466;11.086;2022-11-20T01:41:49;1.00;97.00
1415;DHT22;702;49.466;11.086;2022-11-20T01:44:49;1.00;97.40
1415;DHT22;702;49.466;11.086;2022-11-20T01:47:30;1.10;98.40
1415;DHT22;702;49.466;11.086;2022-11-20T01:50:03;1.10;98.00
1415;DHT22;702;49.466;11.086;2022-11-20T01:52:37;1.20;97.70
1415;DHT22;702;49.466;11.086;2022-11-20T01:55:10;1.30;97.80
1415;DHT22;702;49.466;11.086;2022-11-20T01:57:40;1.20;97.10
1415;DHT22;702;49.466;11.086;2022-11-20T02:00:10;1.30;98.60
1415;DHT22;702;49.466;11.086;2022-11-20T02:02:42;1.40;97.40
1415;DHT22;702;49.466;11.086;2022-11-20T02:05:16;1.40;96.10
1415;DHT22;702;49.466;11.086;2022-11-20T02:07:49;1.30;96.40
1415;DHT22;702;49.466;11.086;2022-11-20T02:10:17;1.40;98.10
1415;DHT22;702;49.466;11.086;2022-11-20T02:12:45;1.40;97.60
1415;DHT22;702;49.466;11.086;2022-11-20T02:15:30;1.40;97.20
1415;DHT22;702;49.466;11.086;2022-11-20T02:17:57;1.30;96.90
1415;DHT22;702;49.466;11.086;2022-11-20T02:20:25;1.40;98.30
1415;DHT22;702;49.466;11.086;2022-11-20T02:22:58;1.50;97.30
1415;DHT22;702;49.466;11.086;2022-11-20T02:25:29;1.50;96.90
1415;DHT22;702;49.466;11.086;2022-11-20T02:27:56;1.40;96.70
1415;DHT22;702;49.466;11.086;2022-11-20T02:30:24;1.30;98.30
1415;DHT22;702;49.466;11.086;2022-11-20T02:32:52;1.30;99.20
1415;DHT22;702;49.466;11.086;2022-11-20T02:35:43;1.40;99.90
1415;DHT22;702;49.466;11.086;2022-11-20T02:38:10;1.50;99.90
1415;DHT22;702;49.466;11.086;2022-11-20T02:40:39;1.60;99.90
1415;DHT22;702;49.466;11.086;2022-11-20T02:43:07;1.70;99.10
1415;DHT22;702;49.466;11.086;2022-11-20T02:45:35;1.70;98.50
1415;DHT22;702;49.466;11.086;2022-11-20T02:48:03;1.70;97.10
1415;DHT22;702;49.466;11.086;2022-11-20T02:50:30;1.60;98.20
1415;DHT22;702;49.466;11.086;2022-11-20T02:52:57;1.50;98.20
1415;DHT22;702;49.466;11.086;2022-11-20T02:55:25;1.50;99.30
1415;DHT22;702;49.466;11.086;2022-11-20T02:57:53;1.50;98.90
1415;DHT22;702;49.466;11.086;2022-11-20T03:00:21;1.60;98.10
1415;DHT22;702;49.466;11.086;2022-11-20T03:02:48;1.60;97.20
1415;DHT22;702;49.466;11.086;2022-11-20T03:05:15;1.50;97.30
1415;DHT22;702;49.466;11.086;2022-11-20T03:07:43;1.40;98.80
1415;DHT22;702;49.466;11.086;2022-11-20T03:10:11;1.50;99.90
1415;DHT22;702;49.466;11.086;2022-11-20T03:12:38;1.50;99.50
1415;DHT22;702;49.466;11.086;2022-11-20T03:15:08;1.60;97.20
1415;DHT22;702;49.466;11.086;2022-11-20T03:17:36;1.60;97.40
1415;DHT22;702;49.466;11.086;2022-11-20T03:20:04;1.60;98.20
1415;DHT22;702;49.466;11.086;2022-11-20T03:22:32;1.60;97.20
1415;DHT22;702;49.466;11.086;2022-11-20T03:25:00;1.60;96.90
1415;DHT22;702;49.466;11.086;2022-11-20T03:27:32;1.50;97.50
1415;DHT22;702;49.466;11.086;2022-11-20T03:30:00;1.40;98.70
1415;DHT22;702;49.466;11.086;2022-11-20T03:32:29;1.40;99.50
1415;DHT22;702;49.466;11.086;2022-11-20T03:34:56;1.40;99.00
1415;DHT22;702;49.466;11.086;2022-11-20T03:37:23;1.40;99.90
1415;DHT22;702;49.466;11.086;2022-11-20T03:39:50;1.40;99.90
1415;DHT22;702;49.466;11.086;2022-11-20T03:42:18;1.40;99.80
1415;DHT22;702;49.466;11.086;2022-11-20T03:45:03;1.40;99.90
1415;DHT22;702;49.466;11.086;2022-11-20T03:47:32;1.40;99.90
1415;DHT22;702;49.466;11.086;2022-11-20T03:49:59;1.40;99.90
1415;DHT22;702;49.466;11.086;2022-11-20T03:52:27;1.40;99.90
1415;DHT22;702;49.466;11.086;2022-11-20T03:54:54;1.30;99.90
1415;DHT22;702;49.466;11.086;2022-11-20T03:57:21;1.30;99.90
1415;DHT22;702;49.466;11.086;2022-11-20T03:59:49;1.30;99.90
1415;DHT22;702;49.466;11.086;2022-11-20T04:02:17;1.30;99.90
1415;DHT22;702;49.466;11.086;2022-11-20T04:04:46;1.30;99.90
1415;DHT22;702;49.466;11.086;2022-11-20T04:07:13;1.30;99.90
1415;DHT22;702;49.466;11.086;2022-11-20T04:09:41;1.30;99.90
1415;DHT22;702;49.466;11.086;2022-11-20T04:12:08;1.20;99.90
1415;DHT22;702;49.466;11.086;2022-11-20T04:14:35;1.20;99.90
1415;DHT22;702;49.466;11.086;2022-11-20T04:17:03;1.20;99.90
1415;DHT22;702;49.466;11.086;2022-11-20T04:19:30;1.10;99.90
1415;DHT22;702;49.466;11.086;2022-11-20T04:22:00;1.10;99.90
1415;DHT22;702;49.466;11.086;2022-11-20T04:24:27;1.10;99.90
1415;DHT22;702;49.466;11.086;2022-11-20T04:26:54;1.10;99.90
1415;DHT22;702;49.466;11.086;2022-11-20T04:29:21;1.10;99.90
1415;DHT22;702;49.466;11.086;2022-11-20T04:31:49;1.10;99.90
1415;DHT22;702;49.466;11.086;2022-11-20T04:34:16;1.10;99.90
1415;DHT22;702;49.466;11.086;2022-11-20T04:36:43;1.20;99.90
1415;DHT22;702;49.466;11.086;2022-11-20T04:39:15;1.20;99.90
1415;DHT22;702;49.466;11.086;2022-11-20T04:41:43;1.20;99.90
1415;DHT22;702;49.466;11.086;2022-11-20T04:44:10;1.20;99.90
1415;DHT22;702;49.466;11.086;2022-11-20T04:46:39;1.20;99.90
1415;DHT22;702;49.466;11.086;2022-11-20T04:49:08;1.20;99.90
1415;DHT22;702;49.466;11.086;2022-11-20T04:51:35;1.20;99.90
1415;DHT22;702;49.466;11.086;2022-11-20T04:54:04;1.20;99.90
1415;DHT22;702;49.466;11.086;2022-11-20T04:56:32;1.30;99.90
1415;DHT22;702;49.466;11.086;2022-11-20T04:59:00;1.20;99.90
1415;DHT22;702;49.466;11.086;2022-11-20T05:01:28;1.30;99.90
1415;DHT22;702;49.466;11.086;2022-11-20T05:03:55;1.20;99.90
1415;DHT22;702;49.466;11.086;2022-11-20T05:06:23;1.30;99.90
1415;DHT22;702;49.466;11.086;2022-11-20T05:08:50;1.20;99.90
1415;DHT22;702;49.466;11.086;2022-11-20T05:11:19;1.30;99.90
1415;DHT22;702;49.466;11.086;2022-11-20T05:13:49;1.20;99.90
1415;DHT22;702;49.466;11.086;2022-11-20T05:16:18;1.10;99.90
1415;DHT22;702;49.466;11.086;2022-11-20T05:18:47;1.20;99.90
1415;DHT22;702;49.466;11.086;2022-11-20T05:21:15;1.30;99.90
1415;DHT22;702;49.466;11.086;2022-11-20T05:23:44;1.40;99.90
1415;DHT22;702;49.466;11.086;2022-11-20T05:26:13;1.40;99.90
1415;DHT22;702;49.466;11.086;2022-11-20T05:28:42;1.40;99.90
1415;DHT22;702;49.466;11.086;2022-11-20T05:31:13;1.40;99.90
1415;DHT22;702;49.466;11.086;2022-11-20T05:33:43;1.30;99.90
1415;DHT22;702;49.466;11.086;2022-11-20T05:36:12;1.40;99.90
1415;DHT22;702;49.466;11.086;2022-11-20T05:38:41;1.30;99.90
1415;DHT22;702;49.466;11.086;2022-11-20T05:41:10;1.30;99.90
1415;DHT22;702;49.466;11.086;2022-11-20T05:43:40;1.50;99.90
1415;DHT22;702;49.466;11.086;2022-11-20T05:46:11;1.50;99.90
1415;DHT22;702;49.466;11.086;2022-11-20T05:48:41;1.50;99.90
1415;DHT22;702;49.466;11.086;2022-11-20T05:51:11;1.60;99.90
1415;DHT22;702;49.466;11.086;2022-11-20T05:53:39;1.50;99.90
1415;DHT22;702;49.466;11.086;2022-11-20T05:56:09;1.50;99.90
1415;DHT22;702;49.466;11.086;2022-11-20T05:58:38;1.50;99.90
1415;DHT22;702;49.466;11.086;2022-11-20T06:01:07;1.50;99.90
1415;DHT22;702;49.466;11.086;2022-11-20T06:03:37;1.50;99.90
1415;DHT22;702;49.466;11.086;2022-11-20T06:06:06;1.40;99.90
1415;DHT22;702;49.466;11.086;2022-11-20T06:08:34;1.50;99.90
1415;DHT22;702;49.466;11.086;2022-11-20T06:11:05;1.60;99.90
1415;DHT22;702;49.466;11.086;2022-11-20T06:13:32;1.60;99.90
1415;DHT22;702;49.466;11.086;2022-11-20T06:16:00;1.70;99.90
1415;DHT22;702;49.466;11.086;2022-11-20T06:18:30;1.60;99.90
1415;DHT22;702;49.466;11.086;2022-11-20T06:21:04;1.60;99.90
1415;DHT22;702;49.466;11.086;2022-11-20T06:23:32;1.70;99.90
1415;DHT22;702;49.466;11.086;2022-11-20T06:26:02;1.70;99.90
1415;DHT22;702;49.466;11.086;2022-11-20T06:28:30;1.70;99.90
1415;DHT22;702;49.466;11.086;2022-11-20T06:30:57;1.80;99.90
1415;DHT22;702;49.466;11.086;2022-11-20T06:33:25;1.90;99.90
1415;DHT22;702;49.466;11.086;2022-11-20T06:35:55;1.80;99.90
1415;DHT22;702;49.466;11.086;2022-11-20T06:38:24;1.80;99.90
1415;DHT22;702;49.466;11.086;2022-11-20T06:40:52;1.70;99.90
1415;DHT22;702;49.466;11.086;2022-11-20T06:43:19;1.70;99.90
1415;DHT22;702;49.466;11.086;2022-11-20T06:45:46;1.80;99.90
1415;DHT22;702;49.466;11.086;2022-11-20T06:48:19;1.80;99.90
1415;DHT22;702;49.466;11.086;2022-11-20T06:50:46;1.80;99.90
1415;DHT22;702;49.466;11.086;2022-11-20T06:53:13;1.80;99.90
1415;DHT22;702;49.466;11.086;2022-11-20T06:55:43;1.90;99.90
1415;DHT22;702;49.466;11.086;2022-11-20T06:58:11;1.90;99.90
1415;DHT22;702;49.466;11.086;2022-11-20T07:00:39;1.90;99.90
1415;DHT22;702;49.466;11.086;2022-11-20T07:03:07;1.90;99.90
1415;DHT22;702;49.466;11.086;2022-11-20T07:05:36;2.00;99.90
1415;DHT22;702;49.466;11.086;2022-11-20T07:08:04;2.00;99.90
1415;DHT22;702;49.466;11.086;2022-11-20T07:10:32;2.10;99.90
1415;DHT22;702;49.466;11.086;2022-11-20T07:13:01;2.20;99.90
1415;DHT22;702;49.466;11.086;2022-11-20T07:15:28;2.30;99.90
1415;DHT22;702;49.466;11.086;2022-11-20T07:17:58;2.30;99.90
1415;DHT22;702;49.466;11.086;2022-11-20T07:20:25;2.40;99.90
1415;DHT22;702;49.466;11.086;2022-11-20T07:22:53;2.30;99.90
1415;DHT22;702;49.466;11.086;2022-11-20T07:25:21;2.30;99.90
1415;DHT22;702;49.466;11.086;2022-11-20T07:27:48;2.40;99.90
1415;DHT22;702;49.466;11.086;2022-11-20T07:30:17;2.40;99.90
1415;DHT22;702;49.466;11.086;2022-11-20T07:32:46;2.50;99.90
1415;DHT22;702;49.466;11.086;2022-11-20T07:35:13;2.40;99.90
1415;DHT22;702;49.466;11.086;2022-11-20T07:37:41;2.50;99.90
1415;DHT22;702;49.466;11.086;2022-11-20T07:40:09;2.50;99.90
1415;DHT22;702;49.466;11.086;2022-11-20T07:42:37;2.60;99.90
1415;DHT22;702;49.466;11.086;2022-11-20T07:45:05;2.70;99.90
1415;DHT22;702;49.466;11.086;2022-11-20T07:47:36;2.60;99.50
1415;DHT22;702;49.466;11.086;2022-11-20T07:50:04;2.60;99.90
1415;DHT22;702;49.466;11.086;2022-11-20T07:52:33;2.60;99.50
1415;DHT22;702;49.466;11.086;2022-11-20T07:55:00;2.70;99.80
1415;DHT22;702;49.466;11.086;2022-11-20T07:57:27;2.70;99.20
1415;DHT22;702;49.466;11.086;2022-11-20T07:59:54;2.90;99.90
1415;DHT22;702;49.466;11.086;2022-11-20T08:02:22;2.90;97.60
1415;DHT22;702;49.466;11.086;2022-11-20T08:04:51;2.70;97.10
1415;DHT22;702;49.466;11.086;2022-11-20T08:07:18;2.70;98.60
1415;DHT22;702;49.466;11.086;2022-11-20T08:09:45;2.70;98.60
1415;DHT22;702;49.466;11.086;2022-11-20T08:12:18;2.70;99.90
1415;DHT22;702;49.466;11.086;2022-11-20T08:15:05;2.60;99.90
1415;DHT22;702;49.466;11.086;2022-11-20T08:17:33;2.60;99.30
1415;DHT22;702;49.466;11.086;2022-11-20T08:20:02;2.60;99.90
1415;DHT22;702;49.466;11.086;2022-11-20T08:22:30;2.80;99.90
1415;DHT22;702;49.466;11.086;2022-11-20T08:24:57;2.80;98.90
1415;DHT22;702;49.466;11.086;2022-11-20T08:27:25;2.70;99.30
1415;DHT22;702;49.466;11.086;2022-11-20T08:29:52;2.80;99.90
1415;DHT22;702;49.466;11.086;2022-11-20T08:32:19;3.00;98.90
1415;DHT22;702;49.466;11.086;2022-11-20T08:34:46;3.10;99.20
1415;DHT22;702;49.466;11.086;2022-11-20T08:37:16;3.10;96.20
1415;DHT22;702;49.466;11.086;2022-11-20T08:39:44;3.00;96.00
1415;DHT22;702;49.466;11.086;2022-11-20T08:42:12;3.00;97.40
1415;DHT22;702;49.466;11.086;2022-11-20T08:44:39;3.10;96.80
1415;DHT22;702;49.466;11.086;2022-11-20T08:47:06;3.10;96.60
1415;DHT22;702;49.466;11.086;2022-11-20T08:49:33;3.20;95.60
1415;DHT22;702;49.466;11.086;2022-11-20T08:52:01;3.30;96.10
1415;DHT22;702;49.466;11.086;2022-11-20T08:54:29;3.40;94.90
1415;DHT22;702;49.466;11.086;2022-11-20T08:56:56;3.30;94.50
1415;DHT22;702;49.466;11.086;2022-11-20T08:59:24;3.40;94.60
1415;DHT22;702;49.466;11.086;2022-11-20T09:01:51;3.50;93.60
1415;DHT22;702;49.466;11.086;2022-11-20T09:04:18;3.60;93.40
1415;DHT22;702;49.466;11.086;2022-11-20T09:06:45;3.50;93.50
1415;DHT22;702;49.466;11.086;2022-11-20T09:09:16;3.50;93.60
1415;DHT22;702;49.466;11.086;2022-11-20T09:11:45;3.30;93.20
1415;DHT22;702;49.466;11.086;2022-11-20T09:14:12;3.30;94.20
1415;DHT22;702;49.466;11.086;2022-11-20T09:16:39;3.30;94.30
1415;DHT22;702;49.466;11.086;2022-11-20T09:19:07;3.20;94.70
1415;DHT22;702;49.466;11.086;2022-11-20T09:21:34;3.20;95.40
1415;DHT22;702;49.466;11.086;2022-11-20T09:24:01;3.20;94.30
1415;DHT22;702;49.466;11.086;2022-11-20T09:26:29;3.10;94.50
1415;DHT22;702;49.466;11.086;2022-11-20T09:28:57;3.10;95.50
1415;DHT22;702;49.466;11.086;2022-11-20T09:31:25;2.90;96.50
1415;DHT22;702;49.466;11.086;2022-11-20T09:33:52;3.10;97.20
1415;DHT22;702;49.466;11.086;2022-11-20T09:36:19;3.30;97.30
1415;DHT22;702;49.466;11.086;2022-11-20T09:38:47;3.40;95.50
1415;DHT22;702;49.466;11.086;2022-11-20T09:41:35;3.50;94.90
1415;DHT22;702;49.466;11.086;2022-11-20T09:44:24;3.60;93.90
1415;DHT22;702;49.466;11.086;2022-11-20T09:47:02;3.40;94.10
1415;DHT22;702;49.466;11.086;2022-11-20T09:49:46;3.50;94.40
1415;DHT22;702;49.466;11.086;2022-11-20T09:52:25;3.50;94.50
1415;DHT22;702;49.466;11.086;2022-11-20T09:55:02;3.60;95.30
1415;DHT22;702;49.466;11.086;2022-11-20T09:57:34;3.70;94.00
1415;DHT22;702;49.466;11.086;2022-11-20T10:00:06;3.70;93.60
1415;DHT22;702;49.466;11.086;2022-11-20T10:02:42;3.80;93.60
1415;DHT22;702;49.466;11.086;2022-11-20T10:05:17;3.90;94.10
1415;DHT22;702;49.466;11.086;2022-11-20T10:07:51;4.10;94.00
1415;DHT22;702;49.466;11.086;2022-11-20T10:10:28;4.00;93.80
1415;DHT22;702;49.466;11.086;2022-11-20T10:13:10;4.00;95.10
1415;DHT22;702;49.466;11.086;2022-11-20T10:15:53;4.10;93.30
1415;DHT22;702;49.466;11.086;2022-11-20T10:18:36;4.10;92.70
1415;DHT22;702;49.466;11.086;2022-11-20T10:21:25;4.10;94.00
1415;DHT22;702;49.466;11.086;2022-11-20T10:24:21;4.20;93.60
1415;DHT22;702;49.466;11.086;2022-11-20T10:27:00;4.10;92.80
1415;DHT22;702;49.466;11.086;2022-11-20T10:29:52;4.00;94.30
1415;DHT22;702;49.466;11.086;2022-11-20T10:32:33;4.10;94.00
1415;DHT22;702;49.466;11.086;2022-11-20T10:35:10;4.20;93.90
1415;DHT22;702;49.466;11.086;2022-11-20T10:37:45;4.10;94.80
1415;DHT22;702;49.466;11.086;2022-11-20T10:40:23;4.20;96.40
1415;DHT22;702;49.466;11.086;2022-11-20T10:42:58;4.30;95.00
1415;DHT22;702;49.466;11.086;2022-11-20T10:45:52;4.30;93.90
1415;DHT22;702;49.466;11.086;2022-11-20T10:48:25;4.40;93.70
1415;DHT22;702;49.466;11.086;2022-11-20T10:51:10;4.50;93.50
1415;DHT22;702;49.466;11.086;2022-11-20T10:53:56;4.70;92.50
1415;DHT22;702;49.466;11.086;2022-11-20T10:56:31;4.90;91.60
1415;DHT22;702;49.466;11.086;2022-11-20T10:59:24;4.70;91.00
1415;DHT22;702;49.466;11.086;2022-11-20T11:01:57;4.60;90.90
1415;DHT22;702;49.466;11.086;2022-11-20T11:04:33;4.50;92.00
1415;DHT22;702;49.466;11.086;2022-11-20T11:07:10;4.50;91.60
1415;DHT22;702;49.466;11.086;2022-11-20T11:09:42;4.70;93.30
1415;DHT22;702;49.466;11.086;2022-11-20T11:12:10;4.80;91.60
1415;DHT22;702;49.466;11.086;2022-11-20T11:14:47;4.60;92.10
1415;DHT22;702;49.466;11.086;2022-11-20T11:17:22;4.70;92.90
1415;DHT22;702;49.466;11.086;2022-11-20T11:20:03;4.70;93.50
1415;DHT22;702;49.466;11.086;2022-11-20T11:22:33;4.70;93.20
1415;DHT22;702;49.466;11.086;2022-11-20T11:25:02;4.70;91.70
1415;DHT22;702;49.466;11.086;2022-11-20T11:27:30;4.50;92.50
1415;DHT22;702;49.466;11.086;2022-11-20T11:30:13;3.70;92.40
1415;DHT22;702;49.466;11.086;2022-11-20T11:32:41;3.10;96.90
1415;DHT22;702;49.466;11.086;2022-11-20T11:35:22;2.90;99.90
1415;DHT22;702;49.466;11.086;2022-11-20T11:37:51;3.00;99.90
1415;DHT22;702;49.466;11.086;2022-11-20T11:40:21;3.40;99.90
1415;DHT22;702;49.466;11.086;2022-11-20T11:42:58;3.60;99.90
1415;DHT22;702;49.466;11.086;2022-11-20T11:45:27;3.80;99.90
1415;DHT22;702;49.466;11.086;2022-11-20T11:47:56;4.00;99.60
1415;DHT22;702;49.466;11.086;2022-11-20T11:50:27;3.90;95.50
1415;DHT22;702;49.466;11.086;2022-11-20T11:53:01;3.90;96.20
1415;DHT22;702;49.466;11.086;2022-11-20T11:55:38;4.10;96.50
1415;DHT22;702;49.466;11.086;2022-11-20T11:58:14;4.20;94.60
1415;DHT22;702;49.466;11.086;2022-11-20T12:00:53;4.00;94.40
1415;DHT22;702;49.466;11.086;2022-11-20T12:03:27;4.00;95.80
1415;DHT22;702;49.466;11.086;2022-11-20T12:05:59;4.10;96.80
1415;DHT22;702;49.466;11.086;2022-11-20T12:08:32;4.40;95.70
1415;DHT22;702;49.466;11.086;2022-11-20T12:11:14;4.50;94.30
1415;DHT22;702;49.466;11.086;2022-11-20T12:13:48;4.50;92.90
1415;DHT22;702;49.466;11.086;2022-11-20T12:16:20;4.40;92.90
1415;DHT22;702;49.466;11.086;2022-11-20T12:18:49;4.30;93.20
1415;DHT22;702;49.466;11.086;2022-11-20T12:21:28;4.20;93.10
1415;DHT22;702;49.466;11.086;2022-11-20T12:24:20;4.20;93.90
1415;DHT22;702;49.466;11.086;2022-11-20T12:27:05;4.00;94.60
1415;DHT22;702;49.466;11.086;2022-11-20T12:29:48;4.00;96.10
1415;DHT22;702;49.466;11.086;2022-11-20T12:36:08;4.00;97.70
1415;DHT22;702;49.466;11.086;2022-11-20T12:39:00;4.20;99.00
1415;DHT22;702;49.466;11.086;2022-11-20T12:42:06;4.30;98.40
1415;DHT22;702;49.466;11.086;2022-11-20T12:45:10;4.60;96.60
1415;DHT22;702;49.466;11.086;2022-11-20T12:47:56;4.80;95.20
1415;DHT22;702;49.466;11.086;2022-11-20T12:50:39;4.90;93.50
1415;DHT22;702;49.466;11.086;2022-11-20T12:53:25;4.90;92.70
1415;DHT22;702;49.466;11.086;2022-11-20T12:56:00;4.80;93.30
1415;DHT22;702;49.466;11.086;2022-11-20T12:58:38;4.70;93.40
1415;DHT22;702;49.466;11.086;2022-11-20T13:01:17;4.50;94.00
1415;DHT22;702;49.466;11.086;2022-11-20T13:04:09;4.50;94.80
1415;DHT22;702;49.466;11.086;2022-11-20T13:06:44;4.50;94.40
1415;DHT22;702;49.466;11.086;2022-11-20T13:09:14;4.50;95.40
1415;DHT22;702;49.466;11.086;2022-11-20T13:11:48;4.50;96.10
1415;DHT22;702;49.466;11.086;2022-11-20T13:14:27;4.40;95.70
1415;DHT22;702;49.466;11.086;2022-11-20T13:17:05;4.40;95.40
1415;DHT22;702;49.466;11.086;2022-11-20T13:19:38;4.40;97.10
1415;DHT22;702;49.466;11.086;2022-11-20T13:22:07;4.30;97.20
1415;DHT22;702;49.466;11.086;2022-11-20T13:24:35;4.30;96.70
1415;DHT22;702;49.466;11.086;2022-11-20T13:27:16;4.30;96.80
1415;DHT22;702;49.466;11.086;2022-11-20T13:29:58;4.30;97.50
1415;DHT22;702;49.466;11.086;2022-11-20T13:32:27;4.30;98.50
1415;DHT22;702;49.466;11.086;2022-11-20T13:34:59;4.30;98.30
1415;DHT22;702;49.466;11.086;2022-11-20T13:37:30;4.30;97.80
1415;DHT22;702;49.466;11.086;2022-11-20T13:40:21;4.20;99.30
1415;DHT22;702;49.466;11.086;2022-11-20T13:43:02;4.30;99.70
1415;DHT22;702;49.466;11.086;2022-11-20T13:45:34;4.30;98.80
1415;DHT22;702;49.466;11.086;2022-11-20T13:48:04;4.30;98.60
1415;DHT22;702;49.466;11.086;2022-11-20T13:50:48;4.30;98.00
1415;DHT22;702;49.466;11.086;2022-11-20T13:53:58;4.30;98.30
1415;DHT22;702;49.466;11.086;2022-11-20T13:56:40;4.10;97.60
1415;DHT22;702;49.466;11.086;2022-11-20T13:59:28;4.00;99.90
1415;DHT22;702;49.466;11.086;2022-11-20T14:02:03;4.00;99.90
1415;DHT22;702;49.466;11.086;2022-11-20T14:04:38;4.00;99.90
1415;DHT22;702;49.466;11.086;2022-11-20T14:07:09;4.10;99.90
1415;DHT22;702;49.466;11.086;2022-11-20T14:09:37;4.10;99.90
1415;DHT22;702;49.466;11.086;2022-11-20T14:12:15;4.10;99.90
1415;DHT22;702;49.466;11.086;2022-11-20T14:14:50;4.10;99.90
1415;DHT22;702;49.466;11.086;2022-11-20T14:17:20;4.00;99.90
1415;DHT22;702;49.466;11.086;2022-11-20T14:19:50;4.00;99.90
1415;DHT22;702;49.466;11.086;2022-11-20T14:22:20;4.00;99.90
1415;DHT22;702;49.466;11.086;2022-11-20T14:25:00;3.90;99.90
1415;DHT22;702;49.466;11.086;2022-11-20T14:27:28;3.90;99.90
1415;DHT22;702;49.466;11.086;2022-11-20T14:30:01;3.90;99.90
1415;DHT22;702;49.466;11.086;2022-11-20T14:32:29;4.10;99.90
1415;DHT22;702;49.466;11.086;2022-11-20T14:35:02;4.10;99.90
1415;DHT22;702;49.466;11.086;2022-11-20T14:37:36;4.00;99.90
1415;DHT22;702;49.466;11.086;2022-11-20T14:40:25;4.00;99.90
1415;DHT22;702;49.466;11.086;2022-11-20T14:42:54;4.10;99.90
1415;DHT22;702;49.466;11.086;2022-11-20T14:45:24;4.10;99.90
1415;DHT22;702;49.466;11.086;2022-11-20T14:47:53;4.10;99.90
1415;DHT22;702;49.466;11.086;2022-11-20T14:50:23;4.10;99.90
1415;DHT22;702;49.466;11.086;2022-11-20T14:52:53;4.10;99.90
1415;DHT22;702;49.466;11.086;2022-11-20T14:55:26;4.10;99.90
1415;DHT22;702;49.466;11.086;2022-11-20T14:57:55;4.10;99.90
1415;DHT22;702;49.466;11.086;2022-11-20T15:00:25;4.10;99.90
1415;DHT22;702;49.466;11.086;2022-11-20T15:02:52;4.00;99.90
1415;DHT22;702;49.466;11.086;2022-11-20T15:05:22;4.00;99.90
1415;DHT22;702;49.466;11.086;2022-11-20T15:07:52;4.00;99.90
1415;DHT22;702;49.466;11.086;2022-11-20T15:10:32;4.00;99.90
1415;DHT22;702;49.466;11.086;2022-11-20T15:13:02;4.10;99.90
1415;DHT22;702;49.466;11.086;2022-11-20T15:15:35;4.00;99.90
1415;DHT22;702;49.466;11.086;2022-11-20T15:18:04;4.00;99.90
1415;DHT22;702;49.466;11.086;2022-11-20T15:20:32;4.00;99.90
1415;DHT22;702;49.466;11.086;2022-11-20T15:23:00;4.00;99.90
1415;DHT22;702;49.466;11.086;2022-11-20T15:25:28;4.10;99.90
1415;DHT22;702;49.466;11.086;2022-11-20T15:27:56;4.10;99.90
1415;DHT22;702;49.466;11.086;2022-11-20T15:30:24;4.10;99.90
1415;DHT22;702;49.466;11.086;2022-11-20T15:32:52;4.10;99.90
1415;DHT22;702;49.466;11.086;2022-11-20T15:35:20;4.10;99.90
1415;DHT22;702;49.466;11.086;2022-11-20T15:37:47;4.10;99.90
1415;DHT22;702;49.466;11.086;2022-11-20T15:40:14;4.10;99.90
1415;DHT22;702;49.466;11.086;2022-11-20T15:42:41;4.10;99.90
1415;DHT22;702;49.466;11.086;2022-11-20T15:45:29;4.10;99.90
1415;DHT22;702;49.466;11.086;2022-11-20T15:47:59;4.20;99.90
1415;DHT22;702;49.466;11.086;2022-11-20T15:50:33;4.20;99.90
1415;DHT22;702;49.466;11.086;2022-11-20T15:53:03;4.20;99.90
1415;DHT22;702;49.466;11.086;2022-11-20T15:55:30;4.30;99.90
1415;DHT22;702;49.466;11.086;2022-11-20T15:57:58;4.20;99.90
1415;DHT22;702;49.466;11.086;2022-11-20T16:00:25;4.20;99.90
1415;DHT22;702;49.466;11.086;2022-11-20T16:02:52;4.20;99.90
1415;DHT22;702;49.466;11.086;2022-11-20T16:05:21;4.20;99.90
1415;DHT22;702;49.466;11.086;2022-11-20T16:07:50;4.20;99.90
1415;DHT22;702;49.466;11.086;2022-11-20T16:10:17;4.30;99.90
1415;DHT22;702;49.466;11.086;2022-11-20T16:12:45;4.30;99.90
1415;DHT22;702;49.466;11.086;2022-11-20T16:15:30;4.30;99.90
1415;DHT22;702;49.466;11.086;2022-11-20T16:18:14;4.10;99.90
1415;DHT22;702;49.466;11.086;2022-11-20T16:20:45;4.10;99.90
1415;DHT22;702;49.466;11.086;2022-11-20T16:23:14;4.10;99.90
1415;DHT22;702;49.466;11.086;2022-11-20T16:25:43;4.20;99.90
1415;DHT22;702;49.466;11.086;2022-11-20T16:28:10;4.20;99.90
1415;DHT22;702;49.466;11.086;2022-11-20T16:30:38;4.20;99.90
1415;DHT22;702;49.466;11.086;2022-11-20T16:33:10;4.20;99.90
1415;DHT22;702;49.466;11.086;2022-11-20T16:35:38;4.20;99.90
1415;DHT22;702;49.466;11.086;2022-11-20T16:38:07;4.30;99.90
1415;DHT22;702;49.466;11.086;2022-11-20T16:40:34;4.30;99.90
1415;DHT22;702;49.466;11.086;2022-11-20T16:43:07;4.30;99.90
1415;DHT22;702;49.466;11.086;2022-11-20T16:45:40;4.40;99.90
1415;DHT22;702;49.466;11.086;2022-11-20T16:48:12;4.30;99.90